Time;durP1;ratioP1;P1;durP2;ratioP2;P2;SDS_P1;SDS_P2;PMS_P1;PMS_P2;Temp;Humidity;BMP_temperature;BMP_pressure;BME280_temperature;BME280_humidity;BME280_pressure;Samples;Min_cycle;Max_cycle;Signal;HPM_P1;HPM_P2
2021/03/29 00:01:49;;;;;;;18.05;11.90;;;11.50;68.60;;;;;;5075502;28;20021;-75
2021/03/29 00:04:15;;;;;;;22.55;13.40;;;11.60;68.20;;;;;;5075356;28;20511;-69
2021/03/29 00:06:42;;;;;;;17.88;12.13;;;11.50;67.90;;;;;;5075178;28;20024;-77
2021/03/29 00:09:08;;;;;;;19.20;12.63;;;11.50;68.20;;;;;;5075093;28;20013;-68
2021/03/29 00:11:35;;;;;;;16.20;10.35;;;11.40;68.30;;;;;;5075249;28;20021;-75
2021/03/29 00:14:02;;;;;;;13.45;8.63;;;11.40;68.70;;;;;;5075185;28;20053;-73
2021/03/29 00:16:30;;;;;;;15.82;11.02;;;11.40;69.00;;;;;;5075155;28;20041;-75
2021/03/29 00:18:56;;;;;;;15.18;9.90;;;11.40;68.80;;;;;;5074942;28;20027;-75
2021/03/29 00:21:22;;;;;;;17.33;9.70;;;11.40;68.90;;;;;;5074848;28;20472;-68
2021/03/29 00:23:48;;;;;;;14.30;9.43;;;11.40;69.10;;;;;;5074606;28;20503;-75
2021/03/29 00:26:14;;;;;;;14.07;10.40;;;11.40;69.00;;;;;;5073741;28;20036;-76
2021/03/29 00:28:40;;;;;;;15.65;9.95;;;11.30;69.20;;;;;;5074724;28;20032;-74
2021/03/29 00:31:08;;;;;;;19.08;9.73;;;11.30;69.50;;;;;;5074844;28;20025;-75
2021/03/29 00:33:35;;;;;;;11.23;9.57;;;11.30;69.40;;;;;;5074945;28;20051;-68
2021/03/29 00:36:01;;;;;;;13.60;9.30;;;11.30;69.30;;;;;;5074553;28;20497;-69
2021/03/29 00:38:28;;;;;;;13.75;9.25;;;11.30;69.90;;;;;;5074747;28;20032;-76
2021/03/29 00:41:00;;;;;;;13.98;8.80;;;11.30;70.20;;;;;;5074493;28;20476;-76
2021/03/29 00:43:30;;;;;;;9.07;7.65;;;11.30;70.00;;;;;;5074520;28;20031;-69
2021/03/29 00:45:57;;;;;;;11.55;7.10;;;11.30;70.00;;;;;;5074732;28;20491;-68
2021/03/29 00:48:25;;;;;;;7.85;6.18;;;11.20;70.50;;;;;;5074415;28;20016;-68
2021/03/29 00:50:53;;;;;;;10.73;6.95;;;11.30;70.40;;;;;;5074392;28;20029;-71
2021/03/29 00:53:19;;;;;;;13.32;8.20;;;11.30;70.10;;;;;;5074404;28;20020;-68
2021/03/29 00:55:47;;;;;;;15.88;10.43;;;11.30;69.60;;;;;;5074541;28;20029;-75
2021/03/29 00:58:20;;;;;;;20.88;13.55;;;11.30;69.60;;;;;;5072473;28;20028;-69
2021/03/29 01:00:49;;;;;;;;;;;11.30;69.50;;;;;;5071823;28;20017;-75
2021/03/29 01:03:22;;;;;;;17.85;11.88;;;11.30;68.50;;;;;;5071451;28;19904;-71
2021/03/29 01:05:55;;;;;;;17.17;12.95;;;11.20;68.30;;;;;;5073423;28;20397;-76
2021/03/29 01:08:21;;;;;;;;;;;11.20;68.70;;;;;;5074292;28;20035;-76
2021/03/29 01:10:47;;;;;;;18.73;12.23;;;11.20;68.80;;;;;;5073910;28;20305;-76
2021/03/29 01:13:16;;;;;;;17.05;12.07;;;11.10;68.80;;;;;;5073621;28;20109;-76
2021/03/29 01:15:43;;;;;;;23.85;12.80;;;11.10;69.40;;;;;;5073721;28;20040;-77
2021/03/29 01:18:14;;;;;;;18.17;11.90;;;11.00;70.10;;;;;;5073900;28;20384;-71
2021/03/29 01:20:58;;;;;;;18.30;12.40;;;11.00;70.40;;;;;;5073650;28;20402;-69
2021/03/29 01:23:26;;;;;;;15.00;11.85;;;11.00;70.00;;;;;;5073816;28;20024;-72
2021/03/29 01:26:01;;;;;;;22.90;12.23;;;11.00;69.90;;;;;;5073855;28;20039;-68
2021/03/29 01:28:27;;;;;;;18.05;11.38;;;11.00;69.70;;;;;;5073319;28;20016;-76
2021/03/29 01:30:54;;;;;;;15.32;12.10;;;11.00;69.60;;;;;;5073618;28;20034;-75
2021/03/29 01:33:21;;;;;;;21.25;11.80;;;11.00;70.10;;;;;;5073463;28;20542;-71
2021/03/29 01:35:56;;;;;;;19.98;12.48;;;10.90;69.80;;;;;;5072560;28;20023;-67
2021/03/29 01:38:25;;;;;;;18.92;11.55;;;10.90;70.20;;;;;;5073272;28;20025;-67
2021/03/29 01:40:52;;;;;;;17.23;11.50;;;10.90;70.20;;;;;;5073642;28;20043;-68
2021/03/29 01:43:18;;;;;;;18.83;11.18;;;10.90;70.40;;;;;;5073207;28;20024;-73
2021/03/29 01:45:45;;;;;;;19.48;10.68;;;10.80;70.50;;;;;;5073116;28;20087;-75
2021/03/29 01:48:11;;;;;;;16.13;11.48;;;10.90;70.70;;;;;;5072838;28;20465;-77
2021/03/29 01:50:40;;;;;;;18.17;11.32;;;10.90;70.50;;;;;;5073267;28;20033;-76
2021/03/29 01:53:07;;;;;;;16.42;10.80;;;10.80;70.50;;;;;;5073143;28;20111;-69
2021/03/29 01:55:33;;;;;;;18.25;10.27;;;10.80;70.60;;;;;;5073243;28;20017;-76
2021/03/29 01:58:00;;;;;;;13.95;10.57;;;10.80;70.40;;;;;;5073310;28;20388;-69
2021/03/29 02:00:52;;;;;;;15.52;10.93;;;10.70;70.40;;;;;;5072991;28;20029;-68
2021/03/29 02:03:19;;;;;;;15.75;10.40;;;10.70;70.90;;;;;;5064922;28;20037;-76
2021/03/29 02:05:45;;;;;;;16.83;10.93;;;10.70;71.10;;;;;;5073034;28;20033;-67
2021/03/29 02:08:14;;;;;;;16.08;10.25;;;10.70;71.10;;;;;;5072894;28;20103;-77
2021/03/29 02:10:41;;;;;;;15.48;10.43;;;10.70;71.10;;;;;;5073125;28;20096;-70
2021/03/29 02:13:08;;;;;;;15.93;11.30;;;10.80;70.90;;;;;;5072858;28;20049;-68
2021/03/29 02:15:34;;;;;;;19.10;10.73;;;10.70;70.80;;;;;;5073029;28;20151;-70
2021/03/29 02:18:04;;;;;;;16.10;10.10;;;10.70;70.90;;;;;;5073204;28;20029;-68
2021/03/29 02:20:33;;;;;;;16.08;10.20;;;10.70;71.20;;;;;;5072915;28;20423;-77
2021/03/29 02:23:01;;;;;;;16.13;10.00;;;10.70;71.30;;;;;;5072986;28;20025;-76
2021/03/29 02:25:29;;;;;;;13.57;8.68;;;10.60;71.20;;;;;;5072919;28;20039;-76
2021/03/29 02:27:56;;;;;;;13.82;9.30;;;10.70;71.30;;;;;;5072841;28;20814;-67
2021/03/29 02:30:28;;;;;;;12.50;8.63;;;10.70;72.00;;;;;;5072945;28;20025;-75
2021/03/29 02:32:55;;;;;;;10.48;7.43;;;10.70;71.30;;;;;;5072679;28;20090;-76
2021/03/29 02:35:24;;;;;;;8.40;6.82;;;10.70;72.00;;;;;;5072828;28;20031;-68
2021/03/29 02:37:54;;;;;;;14.82;7.60;;;10.70;71.30;;;;;;5072819;28;20389;-76
2021/03/29 02:40:21;;;;;;;8.68;6.00;;;10.70;71.30;;;;;;5072305;28;20020;-72
2021/03/29 02:42:49;;;;;;;12.70;6.50;;;10.70;71.50;;;;;;5073044;28;20481;-77
2021/03/29 02:45:17;;;;;;;7.40;6.03;;;10.70;71.40;;;;;;5072745;28;20036;-68
2021/03/29 02:47:44;;;;;;;9.82;6.65;;;10.70;71.50;;;;;;5075741;28;20029;-76
2021/03/29 02:50:14;;;;;;;9.77;6.80;;;10.70;71.70;;;;;;5076458;28;20108;-67
2021/03/29 02:52:50;;;;;;;9.60;6.70;;;10.70;71.50;;;;;;5076654;28;20070;-68
2021/03/29 02:55:18;;;;;;;8.00;6.13;;;10.70;71.60;;;;;;5076661;28;20095;-76
2021/03/29 02:57:45;;;;;;;13.15;5.78;;;10.60;72.00;;;;;;5076534;28;20057;-76
2021/03/29 03:00:18;;;;;;;7.75;6.30;;;10.60;72.30;;;;;;5076442;28;20029;-76
2021/03/29 03:02:45;;;;;;;10.38;6.05;;;10.60;72.30;;;;;;5076399;28;20032;-72
2021/03/29 03:05:12;;;;;;;7.63;5.90;;;10.60;72.40;;;;;;5076162;28;20484;-72
2021/03/29 03:07:39;;;;;;;8.32;6.22;;;10.60;72.20;;;;;;5076367;28;20031;-76
2021/03/29 03:10:12;;;;;;;11.13;6.70;;;10.60;71.90;;;;;;5076302;28;20036;-76
2021/03/29 03:12:41;;;;;;;11.38;6.18;;;10.60;72.10;;;;;;5076328;28;20064;-68
2021/03/29 03:15:10;;;;;;;8.65;5.95;;;10.60;72.20;;;;;;5076381;28;20029;-75
2021/03/29 03:17:36;;;;;;;9.40;6.40;;;10.60;72.40;;;;;;5076242;28;20008;-69
2021/03/29 03:20:07;;;;;;;11.70;6.05;;;10.50;72.60;;;;;;5075973;28;20537;-68
2021/03/29 03:22:32;;;;;;;9.93;6.00;;;10.60;72.20;;;;;;5076217;28;20062;-68
2021/03/29 03:24:58;;;;;;;15.32;6.18;;;10.60;72.20;;;;;;5076195;28;20024;-76
2021/03/29 03:27:24;;;;;;;10.02;5.97;;;10.60;72.20;;;;;;5075900;28;20044;-76
2021/03/29 03:29:50;;;;;;;9.65;6.03;;;10.60;72.10;;;;;;5075841;28;20038;-70
2021/03/29 03:32:16;;;;;;;8.90;6.47;;;10.60;72.00;;;;;;5075849;28;20017;-75
2021/03/29 03:34:43;;;;;;;10.77;6.50;;;10.60;71.80;;;;;;5075802;28;20025;-76
2021/03/29 03:37:15;;;;;;;9.07;6.15;;;10.60;71.90;;;;;;5076133;28;20021;-73
2021/03/29 03:39:44;;;;;;;8.45;6.13;;;10.60;72.20;;;;;;5075523;28;20031;-68
2021/03/29 03:42:12;;;;;;;9.73;5.80;;;10.50;72.20;;;;;;5075881;28;20028;-68
2021/03/29 03:44:38;;;;;;;9.10;6.20;;;10.50;72.20;;;;;;5075699;28;20492;-75
2021/03/29 03:47:06;;;;;;;9.15;6.50;;;10.50;72.70;;;;;;5076153;28;20369;-75
2021/03/29 03:49:32;;;;;;;8.25;5.65;;;10.40;72.40;;;;;;5075368;28;20019;-68
2021/03/29 03:51:59;;;;;;;15.82;7.43;;;10.40;72.40;;;;;;5075622;28;20058;-68
2021/03/29 03:54:25;;;;;;;7.32;5.65;;;10.40;72.60;;;;;;5075574;28;20033;-76
2021/03/29 03:56:52;;;;;;;6.38;4.90;;;10.40;73.20;;;;;;5075391;28;20059;-68
2021/03/29 03:59:18;;;;;;;8.90;5.68;;;10.40;73.00;;;;;;5074519;28;20373;-68
2021/03/29 04:02:06;;;;;;;6.68;5.05;;;10.30;73.00;;;;;;5075427;28;20071;-76
2021/03/29 04:04:35;;;;;;;10.45;5.90;;;10.40;73.00;;;;;;5075284;28;20473;-78
2021/03/29 04:07:02;;;;;;;11.23;5.30;;;10.40;72.70;;;;;;5075380;28;20035;-68
2021/03/29 04:09:45;;;;;;;7.35;5.18;;;10.40;72.40;;;;;;5075341;28;20111;-68
2021/03/29 04:12:11;;;;;;;6.78;5.55;;;10.40;72.40;;;;;;5075178;28;20373;-76
2021/03/29 04:14:38;;;;;;;9.00;5.57;;;10.40;72.40;;;;;;5075558;28;20192;-68
2021/03/29 04:17:05;;;;;;;9.60;5.68;;;10.30;72.20;;;;;;5075123;28;20472;-67
2021/03/29 04:19:31;;;;;;;9.13;5.63;;;10.30;72.20;;;;;;5075030;28;20078;-75
2021/03/29 04:21:57;;;;;;;13.35;6.35;;;10.30;72.30;;;;;;5074681;28;20028;-70
2021/03/29 04:24:23;;;;;;;8.00;6.30;;;10.30;72.20;;;;;;5074759;28;20024;-68
2021/03/29 04:26:49;;;;;;;8.77;6.32;;;10.30;72.10;;;;;;5075108;28;20025;-68
2021/03/29 04:29:14;;;;;;;12.93;6.60;;;10.20;72.10;;;;;;5074685;28;20522;-76
2021/03/29 04:31:40;;;;;;;9.57;6.15;;;10.20;72.20;;;;;;5074509;28;20480;-68
2021/03/29 04:34:09;;;;;;;8.43;5.97;;;10.20;72.20;;;;;;5074930;28;20031;-76
2021/03/29 04:36:35;;;;;;;9.13;6.75;;;10.20;72.40;;;;;;5074626;28;20020;-68
2021/03/29 04:39:01;;;;;;;9.70;6.13;;;10.10;72.30;;;;;;5074456;28;20365;-75
2021/03/29 04:41:27;;;;;;;11.10;6.47;;;10.10;72.30;;;;;;5074951;28;20418;-68
2021/03/29 04:43:52;;;;;;;12.55;6.30;;;10.10;72.50;;;;;;5074825;28;20583;-76
2021/03/29 04:46:18;;;;;;;16.90;5.95;;;10.10;72.60;;;;;;5074455;28;20377;-68
2021/03/29 04:48:44;;;;;;;26.23;6.13;;;10.10;72.60;;;;;;5074652;28;20070;-74
2021/03/29 04:51:10;;;;;;;12.85;6.82;;;10.00;72.70;;;;;;5074327;28;20039;-69
2021/03/29 04:53:35;;;;;;;9.93;6.28;;;10.00;72.50;;;;;;5074161;28;20028;-68
2021/03/29 04:56:01;;;;;;;12.40;7.00;;;10.00;72.40;;;;;;5074409;28;20427;-67
2021/03/29 04:58:27;;;;;;;13.07;6.17;;;10.00;72.70;;;;;;5074374;28;20104;-75
2021/03/29 05:00:53;;;;;;;9.15;5.72;;;10.00;72.80;;;;;;5073973;28;20032;-68
2021/03/29 05:03:18;;;;;;;10.13;6.53;;;9.90;72.70;;;;;;5073764;28;20047;-76
2021/03/29 05:05:44;;;;;;;15.35;6.80;;;9.90;72.70;;;;;;5074185;28;20373;-68
2021/03/29 05:08:09;;;;;;;10.57;6.88;;;9.90;72.60;;;;;;5073884;28;20025;-67
2021/03/29 05:10:39;;;;;;;14.10;7.10;;;9.90;72.70;;;;;;5074300;28;20052;-75
2021/03/29 05:13:05;;;;;;;10.18;6.57;;;9.80;73.20;;;;;;5073743;28;20101;-68
2021/03/29 05:15:31;;;;;;;11.80;7.60;;;9.80;73.20;;;;;;5073958;28;20028;-68
2021/03/29 05:17:57;;;;;;;15.70;8.43;;;9.80;73.30;;;;;;5074032;28;20024;-76
2021/03/29 05:20:23;;;;;;;13.03;7.90;;;9.80;73.30;;;;;;5073981;28;20032;-75
2021/03/29 05:22:49;;;;;;;15.23;8.40;;;9.80;73.70;;;;;;5073806;28;20028;-75
2021/03/29 05:25:15;;;;;;;12.17;7.93;;;9.80;73.50;;;;;;5073718;28;20036;-75
2021/03/29 05:27:40;;;;;;;17.95;7.80;;;9.80;74.00;;;;;;5073913;28;20077;-75
2021/03/29 05:30:07;;;;;;;15.27;8.13;;;9.80;73.90;;;;;;5073505;28;20388;-68
2021/03/29 05:32:33;;;;;;;15.23;8.20;;;9.80;73.70;;;;;;5073705;28;20032;-68
2021/03/29 05:35:02;;;;;;;16.67;8.93;;;9.80;73.60;;;;;;5073591;28;20028;-68
2021/03/29 05:37:29;;;;;;;26.27;9.33;;;9.80;73.80;;;;;;5073261;28;20377;-75
2021/03/29 05:39:57;;;;;;;18.67;9.15;;;9.80;73.90;;;;;;5073538;28;20024;-75
2021/03/29 05:42:25;;;;;;;17.00;8.50;;;9.80;73.90;;;;;;5073675;28;20028;-69
2021/03/29 05:45:07;;;;;;;17.47;9.33;;;9.80;74.20;;;;;;5073219;28;20082;-68
2021/03/29 05:47:33;;;;;;;18.17;9.43;;;9.80;74.20;;;;;;5073537;28;20052;-71
2021/03/29 05:50:00;;;;;;;33.57;9.73;;;9.80;74.00;;;;;;5073245;28;20024;-76
2021/03/29 05:52:28;;;;;;;25.73;10.03;;;9.80;73.90;;;;;;5073121;28;20016;-75
2021/03/29 05:54:56;;;;;;;30.05;10.55;;;9.80;74.00;;;;;;5073341;28;20033;-68
2021/03/29 05:57:22;;;;;;;25.67;10.57;;;9.80;74.40;;;;;;5073417;28;20352;-68
2021/03/29 05:59:49;;;;;;;35.75;11.60;;;9.90;74.40;;;;;;5073134;28;20024;-73
2021/03/29 06:02:32;;;;;;;35.08;11.40;;;9.90;74.50;;;;;;5073101;28;20017;-75
2021/03/29 06:04:58;;;;;;;;;;;10.00;74.90;;;;;;5073298;28;20404;-68
2021/03/29 06:07:26;;;;;;;20.25;9.93;;;10.00;75.30;;;;;;5073043;28;19967;-68
2021/03/29 06:09:54;;;;;;;25.60;9.40;;;10.10;74.70;;;;;;5073013;28;20024;-68
2021/03/29 06:12:22;;;;;;;17.20;9.57;;;10.10;74.60;;;;;;5072907;28;20020;-68
2021/03/29 06:15:03;;;;;;;15.27;8.77;;;10.10;75.40;;;;;;5072939;28;20073;-67
2021/03/29 06:17:28;;;;;;;9.77;7.43;;;10.20;75.40;;;;;;5072892;28;20029;-67
2021/03/29 06:20:00;;;;;;;12.23;7.90;;;10.20;75.40;;;;;;5073164;28;20112;-67
2021/03/29 06:22:36;;;;;;;16.23;8.20;;;10.30;75.30;;;;;;5072656;28;20031;-68
2021/03/29 06:25:06;;;;;;;13.88;7.28;;;10.40;74.90;;;;;;5072883;28;20064;-68
2021/03/29 06:27:46;;;;;;;12.75;6.90;;;10.40;74.80;;;;;;5072655;28;20024;-68
2021/03/29 06:30:12;;;;;;;16.05;7.65;;;10.50;74.30;;;;;;5072556;28;20472;-72
2021/03/29 06:32:51;;;;;;;13.70;7.57;;;10.50;74.10;;;;;;5070453;28;20068;-68
2021/03/29 06:35:23;;;;;;;9.63;7.45;;;10.60;74.10;;;;;;5068759;28;20025;-66
2021/03/29 06:37:49;;;;;;;16.88;7.70;;;10.60;74.20;;;;;;5069716;28;20024;-65
2021/03/29 06:40:15;;;;;;;11.52;7.18;;;10.70;73.90;;;;;;5069340;28;20029;-66
2021/03/29 06:42:41;;;;;;;11.30;7.32;;;10.80;74.00;;;;;;5070533;28;20017;-67
2021/03/29 06:45:19;;;;;;;19.15;7.85;;;10.80;73.60;;;;;;5072513;28;20036;-66
2021/03/29 06:47:45;;;;;;;12.10;6.85;;;10.90;73.50;;;;;;5072859;28;20031;-67
2021/03/29 06:50:31;;;;;;;15.43;7.93;;;10.90;73.40;;;;;;5072451;28;20104;-66
2021/03/29 06:52:57;;;;;;;13.23;6.85;;;11.00;73.50;;;;;;5072423;28;20385;-65
2021/03/29 06:55:26;;;;;;;12.32;7.10;;;11.00;73.50;;;;;;5072591;28;20024;-66
2021/03/29 06:58:03;;;;;;;14.02;8.05;;;11.00;73.50;;;;;;5072356;28;20142;-65
2021/03/29 07:00:29;;;;;;;14.32;7.72;;;11.10;73.50;;;;;;5072454;28;20028;-65
2021/03/29 07:02:59;;;;;;;13.95;7.30;;;11.10;73.30;;;;;;5072298;28;20516;-65
2021/03/29 07:05:25;;;;;;;15.95;7.50;;;11.20;72.90;;;;;;5071848;28;20032;-74
2021/03/29 07:07:52;;;;;;;12.80;7.63;;;11.30;72.80;;;;;;5072064;28;20146;-66
2021/03/29 07:10:18;;;;;;;12.43;8.48;;;11.40;72.70;;;;;;5069541;28;20073;-64
2021/03/29 07:12:45;;;;;;;10.88;8.48;;;11.40;73.00;;;;;;5068477;28;20044;-74
2021/03/29 07:15:13;;;;;;;13.15;8.27;;;11.50;72.90;;;;;;5071470;28;20435;-66
2021/03/29 07:17:41;;;;;;;15.65;8.70;;;11.60;72.90;;;;;;5071282;28;20043;-74
2021/03/29 07:20:09;;;;;;;11.23;8.27;;;11.60;72.50;;;;;;5072572;28;20055;-65
2021/03/29 07:22:40;;;;;;;18.65;8.20;;;11.70;72.40;;;;;;5071732;28;20028;-67
2021/03/29 07:25:15;;;;;;;10.75;7.90;;;11.80;72.30;;;;;;5071619;28;20121;-66
2021/03/29 07:27:55;;;;;;;21.38;8.23;;;11.80;72.20;;;;;;5071704;28;20064;-64
2021/03/29 07:30:54;;;;;;;18.63;9.52;;;11.90;72.40;;;;;;5072396;28;20029;-66
2021/03/29 07:33:20;;;;;;;11.10;7.63;;;11.90;74.60;;;;;;5072019;28;20021;-65
2021/03/29 07:35:50;;;;;;;14.52;8.45;;;12.00;73.80;;;;;;5075487;28;20031;-67
2021/03/29 07:38:23;;;;;;;18.30;8.82;;;12.00;74.10;;;;;;5075492;28;20017;-66
2021/03/29 07:40:54;;;;;;;15.00;8.35;;;12.10;73.80;;;;;;5075845;28;20097;-66
2021/03/29 07:43:24;;;;;;;20.45;8.52;;;12.20;72.80;;;;;;5075907;28;20611;-67
2021/03/29 07:45:54;;;;;;;12.27;8.05;;;12.30;72.50;;;;;;5075498;28;20115;-65
2021/03/29 07:48:40;;;;;;;12.50;8.02;;;12.30;72.60;;;;;;5075477;28;20029;-68
2021/03/29 07:51:11;;;;;;;12.63;7.60;;;12.30;72.40;;;;;;5075956;28;20023;-65
2021/03/29 07:53:41;;;;;;;13.05;7.68;;;12.40;72.00;;;;;;5076070;28;20016;-67
2021/03/29 07:56:08;;;;;;;9.50;7.80;;;12.50;72.90;;;;;;5075938;28;20563;-66
2021/03/29 07:58:44;;;;;;;19.05;8.27;;;12.60;72.10;;;;;;5075630;28;20143;-66
2021/03/29 08:01:11;;;;;;;10.77;7.72;;;12.60;71.90;;;;;;5075594;28;20039;-67
2021/03/29 08:03:52;;;;;;;12.38;8.07;;;12.70;71.40;;;;;;5075582;28;20025;-67
2021/03/29 08:06:37;;;;;;;15.43;7.88;;;12.80;71.20;;;;;;5075557;28;20055;-67
2021/03/29 08:09:05;;;;;;;13.68;8.18;;;12.90;71.10;;;;;;5075459;28;20055;-66
2021/03/29 08:11:58;;;;;;;16.65;7.90;;;12.90;71.10;;;;;;5075467;28;20032;-66
2021/03/29 08:14:29;;;;;;;14.02;7.82;;;13.00;71.70;;;;;;5075394;28;20473;-66
2021/03/29 08:16:55;;;;;;;10.75;7.43;;;13.10;72.30;;;;;;5075331;28;20024;-66
2021/03/29 08:19:25;;;;;;;16.90;8.10;;;13.20;71.70;;;;;;5075233;28;20032;-75
2021/03/29 08:21:58;;;;;;;11.75;8.13;;;13.30;71.70;;;;;;5075395;28;20040;-64
2021/03/29 08:24:25;;;;;;;;;;;13.40;71.50;;;;;;5075682;28;20029;-64
2021/03/29 08:26:55;;;;;;;12.10;7.90;;;13.50;70.80;;;;;;5075435;28;19904;-64
2021/03/29 08:29:31;;;;;;;14.05;7.72;;;13.60;71.20;;;;;;5074899;28;20031;-64
2021/03/29 08:32:09;;;;;;;12.20;7.45;;;13.70;70.90;;;;;;5074150;28;20029;-64
2021/03/29 08:34:40;;;;;;;15.05;8.18;;;13.80;70.30;;;;;;5074349;28;20031;-64
2021/03/29 08:37:07;;;;;;;13.68;7.90;;;13.90;69.80;;;;;;5074920;28;20028;-64
2021/03/29 08:39:47;;;;;;;12.73;8.32;;;14.00;71.00;;;;;;5074469;28;20029;-64
2021/03/29 08:42:15;;;;;;;15.20;8.52;;;14.10;72.00;;;;;;5074584;28;20020;-64
2021/03/29 08:44:43;;;;;;;12.70;7.63;;;14.20;71.40;;;;;;5074261;28;20499;-65
2021/03/29 08:47:17;;;;;;;14.15;7.57;;;14.30;71.10;;;;;;5074621;28;20035;-64
2021/03/29 08:49:44;;;;;;;13.30;8.23;;;14.40;70.80;;;;;;5074662;28;20020;-64
2021/03/29 08:52:11;;;;;;;12.30;8.35;;;14.50;70.10;;;;;;5074496;28;20028;-65
2021/03/29 08:54:56;;;;;;;12.50;8.63;;;14.60;69.60;;;;;;5074422;28;20020;-65
2021/03/29 08:57:32;;;;;;;13.38;7.95;;;14.70;70.00;;;;;;5074578;28;20078;-64
2021/03/29 09:00:10;;;;;;;14.18;8.10;;;14.80;69.30;;;;;;5074392;28;20020;-64
2021/03/29 09:02:36;;;;;;;11.95;8.30;;;14.90;69.30;;;;;;5074215;28;20477;-64
2021/03/29 09:05:05;;;;;;;16.17;8.43;;;14.90;68.00;;;;;;5074415;28;20043;-65
2021/03/29 09:07:38;;;;;;;12.48;7.88;;;14.90;68.30;;;;;;5074379;28;20473;-64
2021/03/29 09:10:45;;;;;;;12.68;7.43;;;15.00;68.00;;;;;;5074270;28;20078;-64
2021/03/29 09:13:15;;;;;;;16.50;9.43;;;15.00;68.10;;;;;;5072720;28;20041;-65
2021/03/29 09:15:49;;;;;;;14.73;9.63;;;15.00;67.70;;;;;;5074255;28;20024;-64
2021/03/29 09:18:22;;;;;;;14.75;9.43;;;15.10;67.90;;;;;;5073989;28;20476;-64
2021/03/29 09:20:50;;;;;;;17.25;9.10;;;15.10;67.60;;;;;;5074345;28;20039;-64
2021/03/29 09:23:20;;;;;;;15.77;8.98;;;15.10;67.40;;;;;;5074132;28;20071;-63
2021/03/29 09:25:51;;;;;;;17.50;9.68;;;15.10;67.10;;;;;;5074104;28;20036;-63
2021/03/29 09:30:57;;;;;;;16.17;10.43;;;15.20;67.00;;;;;;5074007;28;20393;-63
2021/03/29 09:33:24;;;;;;;18.52;10.60;;;15.30;65.80;;;;;;5073612;28;20028;-64
2021/03/29 09:35:51;;;;;;;11.95;9.73;;;15.40;65.00;;;;;;5072695;28;20040;-64
2021/03/29 09:38:34;;;;;;;14.68;9.63;;;15.50;65.30;;;;;;5073918;28;20060;-63
2021/03/29 09:41:22;;;;;;;13.88;9.43;;;15.60;65.30;;;;;;5073746;28;20033;-64
2021/03/29 09:43:50;;;;;;;15.20;10.10;;;15.70;65.00;;;;;;5073142;28;20531;-63
2021/03/29 09:46:17;;;;;;;20.45;9.82;;;15.80;64.60;;;;;;5073797;28;20055;-63
2021/03/29 09:48:43;;;;;;;20.45;9.52;;;15.90;65.00;;;;;;5073215;28;20086;-66
2021/03/29 09:51:23;;;;;;;16.42;8.95;;;16.00;64.80;;;;;;5073740;28;20024;-67
2021/03/29 09:53:49;;;;;;;17.83;11.88;;;16.10;62.70;;;;;;5073637;28;20028;-67
2021/03/29 09:56:31;;;;;;;15.95;11.50;;;16.20;62.20;;;;;;5073136;28;20052;-66
2021/03/29 09:58:57;;;;;;;19.97;11.50;;;16.30;63.40;;;;;;5073601;28;20124;-66
2021/03/29 10:01:25;;;;;;;16.35;11.00;;;16.40;61.50;;;;;;5073265;28;20103;-72
2021/03/29 10:03:57;;;;;;;15.57;10.77;;;16.50;62.20;;;;;;5073374;28;20028;-66
2021/03/29 10:06:24;;;;;;;17.98;11.73;;;16.60;62.80;;;;;;5073306;28;20028;-67
2021/03/29 10:09:08;;;;;;;15.32;11.90;;;16.70;62.50;;;;;;5073232;28;20033;-64
2021/03/29 10:11:48;;;;;;;17.92;11.57;;;16.80;61.40;;;;;;5072962;28;20035;-66
2021/03/29 10:14:16;;;;;;;23.92;11.80;;;16.90;61.80;;;;;;5073058;28;20405;-65
2021/03/29 10:16:48;;;;;;;16.20;10.82;;;17.00;61.00;;;;;;5073170;28;20080;-66
2021/03/29 10:19:16;;;;;;;16.65;11.95;;;17.10;60.90;;;;;;5073289;28;20038;-65
2021/03/29 10:22:14;;;;;;;16.80;11.27;;;17.10;60.50;;;;;;5073208;28;20104;-65
2021/03/29 10:25:13;;;;;;;14.10;10.75;;;17.20;60.90;;;;;;5073289;28;20051;-66
2021/03/29 10:27:57;;;;;;;16.55;10.77;;;17.30;60.50;;;;;;5073081;28;20020;-66
2021/03/29 10:30:28;;;;;;;15.13;11.02;;;17.50;61.10;;;;;;5073317;28;20361;-70
2021/03/29 10:33:04;;;;;;;14.68;10.32;;;17.60;60.60;;;;;;5073107;28;20070;-71
2021/03/29 10:35:32;;;;;;;17.20;10.27;;;17.70;59.70;;;;;;5072919;28;20036;-70
2021/03/29 10:38:02;;;;;;;19.15;10.68;;;17.90;59.10;;;;;;5073023;28;20023;-66
2021/03/29 10:40:28;;;;;;;18.20;10.50;;;18.00;58.90;;;;;;5073114;28;20025;-66
2021/03/29 10:42:54;;;;;;;16.73;9.65;;;18.00;60.00;;;;;;5072971;28;20032;-66
2021/03/29 10:45:20;;;;;;;12.35;9.65;;;18.20;58.50;;;;;;5072674;28;20512;-66
2021/03/29 10:47:47;;;;;;;15.20;10.45;;;18.30;58.40;;;;;;5072712;28;20024;-67
2021/03/29 10:50:16;;;;;;;18.52;10.80;;;18.40;56.00;;;;;;5072578;28;20025;-66
2021/03/29 10:52:42;;;;;;;15.85;9.80;;;18.40;56.80;;;;;;5072800;28;20024;-68
2021/03/29 10:55:09;;;;;;;10.75;9.57;;;18.50;55.60;;;;;;5072699;28;20495;-68
2021/03/29 10:57:35;;;;;;;13.13;8.25;;;18.50;55.60;;;;;;5071503;28;20024;-69
2021/03/29 11:00:01;;;;;;;15.15;9.35;;;18.60;55.40;;;;;;5072570;28;20035;-68
2021/03/29 11:02:29;;;;;;;14.00;8.73;;;18.70;55.00;;;;;;5072724;28;20056;-68
2021/03/29 11:04:54;;;;;;;12.85;8.93;;;18.80;55.60;;;;;;5072634;28;20056;-68
2021/03/29 11:07:20;;;;;;;11.82;8.05;;;18.90;53.30;;;;;;5073645;28;20032;-68
2021/03/29 11:09:46;;;;;;;12.93;9.10;;;19.00;51.40;;;;;;5076205;28;20100;-68
2021/03/29 11:12:12;;;;;;;12.90;8.52;;;19.00;53.20;;;;;;5076580;28;20029;-68
2021/03/29 11:14:37;;;;;;;12.75;8.20;;;19.10;53.80;;;;;;5076534;28;20120;-68
2021/03/29 11:17:04;;;;;;;12.98;9.10;;;19.20;52.20;;;;;;5075028;28;20028;-68
2021/03/29 11:19:29;;;;;;;14.57;8.93;;;19.30;54.50;;;;;;5076386;28;20012;-68
2021/03/29 11:21:55;;;;;;;18.33;9.32;;;19.30;54.10;;;;;;5076265;28;20021;-68
2021/03/29 11:24:21;;;;;;;13.50;8.90;;;19.50;54.20;;;;;;5076225;28;20047;-68
2021/03/29 11:26:53;;;;;;;13.27;9.30;;;19.60;52.50;;;;;;5076444;28;20008;-68
2021/03/29 11:29:18;;;;;;;11.52;7.78;;;19.60;52.60;;;;;;5076017;28;20388;-67
2021/03/29 11:31:45;;;;;;;14.85;7.90;;;19.60;49.90;;;;;;5076123;28;20021;-68
2021/03/29 11:34:12;;;;;;;13.88;8.45;;;19.70;51.00;;;;;;5076175;28;20024;-68
2021/03/29 11:36:39;;;;;;;11.45;8.02;;;19.70;51.20;;;;;;5076077;28;20021;-75
2021/03/29 11:39:09;;;;;;;15.63;8.00;;;19.80;50.80;;;;;;5076212;28;20551;-74
2021/03/29 11:41:35;;;;;;;15.98;7.97;;;19.80;47.90;;;;;;5072364;28;20099;-68
2021/03/29 11:44:03;;;;;;;11.00;8.23;;;19.80;49.40;;;;;;5062924;28;20049;-68
2021/03/29 11:46:28;;;;;;;10.88;8.20;;;19.90;50.30;;;;;;5075604;28;20021;-67
2021/03/29 11:48:54;;;;;;;14.50;7.60;;;20.00;48.10;;;;;;5075735;28;20047;-68
2021/03/29 11:51:20;;;;;;;12.45;7.70;;;20.10;48.40;;;;;;5075863;28;20480;-67
2021/03/29 11:53:45;;;;;;;15.23;7.43;;;20.10;46.40;;;;;;5075602;28;20452;-67
2021/03/29 11:56:11;;;;;;;11.82;8.40;;;20.20;49.30;;;;;;5075411;28;20480;-68
2021/03/29 11:58:37;;;;;;;9.15;7.85;;;20.20;49.00;;;;;;5075650;28;20012;-67
2021/03/29 12:01:27;;;;;;;11.48;8.15;;;20.20;48.30;;;;;;5075756;28;20108;-68
2021/03/29 12:03:59;;;;;;;13.20;7.95;;;20.20;49.20;;;;;;5075173;28;20029;-67
2021/03/29 12:06:28;;;;;;;;;;;20.20;50.00;;;;;;5075787;28;20419;-68
2021/03/29 12:11:59;;;;;;;12.80;7.38;;;20.20;48.80;;;;;;5075853;28;20074;-68
2021/03/29 12:14:31;;;;;;;14.38;8.65;;;20.20;50.50;;;;;;5075228;28;20412;-68
2021/03/29 12:16:57;;;;;;;14.43;8.38;;;20.20;49.40;;;;;;5075285;28;20025;-68
2021/03/29 12:19:23;;;;;;;15.40;8.40;;;20.10;49.70;;;;;;5074184;28;20495;-68
2021/03/29 12:21:57;;;;;;;18.73;8.63;;;20.20;49.60;;;;;;5075345;28;20493;-67
2021/03/29 12:24:28;;;;;;;14.65;8.35;;;20.10;51.10;;;;;;5075031;28;20025;-67
2021/03/29 12:26:54;;;;;;;17.20;8.73;;;20.10;50.90;;;;;;5075019;28;20036;-67
2021/03/29 12:29:22;;;;;;;12.57;8.90;;;20.00;51.10;;;;;;5075211;28;20035;-67
2021/03/29 12:31:49;;;;;;;16.42;9.48;;;20.00;50.20;;;;;;5074832;28;20031;-67
2021/03/29 12:34:15;;;;;;;13.98;9.73;;;20.00;51.00;;;;;;5075138;28;20077;-74
2021/03/29 12:36:49;;;;;;;17.35;10.02;;;20.00;51.30;;;;;;5075218;28;20451;-67
2021/03/29 12:39:37;;;;;;;13.88;9.95;;;20.00;49.30;;;;;;5074909;28;20024;-67
2021/03/29 12:42:06;;;;;;;15.65;8.98;;;19.90;50.70;;;;;;5074768;28;20032;-67
2021/03/29 12:44:33;;;;;;;18.58;10.45;;;19.90;51.40;;;;;;5074698;28;20445;-69
2021/03/29 12:47:02;;;;;;;17.02;10.32;;;20.00;50.90;;;;;;5074635;28;20032;-79
2021/03/29 12:49:28;;;;;;;14.90;11.05;;;20.00;50.80;;;;;;5074515;28;20017;-72
2021/03/29 12:51:57;;;;;;;15.02;9.68;;;20.00;52.10;;;;;;5074289;28;20036;-72
2021/03/29 12:54:26;;;;;;;20.52;10.50;;;20.00;51.60;;;;;;5074608;28;20021;-71
2021/03/29 12:56:53;;;;;;;12.48;10.13;;;20.00;51.70;;;;;;5074585;28;20024;-70